WXM80 ListenWXM80 Stop

You find our weather info also at:

UK Metoffice

WeatherCloud

Weather Underground

Northeastern Weather Network

AWEKAS

Citizen Weather Observer Program (CWOP)

HAMweather, WeatherForYou, PWS Weather


Weather Underground History page Text

Daily Summary for February 16, 2017 Units:  English    Metric   Both
« Previous Day
Next Day »
Daily Weekly Monthly Yearly Custom
  High: Low: Average:
Temperature: 38.1 °F 28.3 °F 33.3 °F
Dew Point: 28.6 °F 18.4 °F 21.6 °F
Humidity: 75 % 51 % 62 %
Wind Speed: 12.5 mph 2.1 mph 7.8 mph
Wind Gust: 23.0 mph - -
Wind:- - WNW
Pressure: 29.74 in 29.38 in -
Precipitation: 0.00 in    
Historical Graphs
 
 
Tabular Data for February 16, 2017
Time Temperature Dew Point Pressure Wind Wind Speed Wind Gust Humidity Rainfall Rate (Hourly)
00:00 35.8 °F 28.6 °F 29.38 in WNW 6.5 mph 12.0 mph 75 % 0.00 in
00:05 35.8 °F 28.3 °F 29.39 in WNW 8.3 mph 11.5 mph 74 % 0.00 in
00:10 35.8 °F 28.3 °F 29.39 in SW 9.3 mph 12.7 mph 74 % 0.00 in
00:15 35.8 °F 28.3 °F 29.39 in WNW 5.4 mph 10.4 mph 74 % 0.00 in
00:20 35.8 °F 28.0 °F 29.39 in WNW 5.4 mph 8.1 mph 73 % 0.00 in
00:25 35.8 °F 28.0 °F 29.39 in WNW 8.1 mph 13.0 mph 73 % 0.00 in
00:30 35.8 °F 28.0 °F 29.39 in West 5.7 mph 12.0 mph 73 % 0.00 in
00:35 35.7 °F 27.6 °F 29.39 in West 8.1 mph 11.5 mph 72 % 0.00 in
00:40 35.7 °F 27.6 °F 29.39 in WSW 7.2 mph 11.5 mph 72 % 0.00 in
00:46 35.7 °F 27.6 °F 29.39 in SW 8.9 mph 14.0 mph 72 % 0.00 in
00:51 35.7 °F 27.6 °F 29.39 in West 8.4 mph 13.0 mph 72 % 0.00 in
00:56 35.6 °F 27.5 °F 29.39 in West 7.3 mph 11.5 mph 72 % 0.00 in
01:01 35.6 °F 27.5 °F 29.39 in West 10.7 mph 17.3 mph 72 % 0.00 in
01:06 35.6 °F 27.5 °F 29.40 in West 11.4 mph 18.4 mph 72 % 0.00 in
01:11 35.5 °F 27.4 °F 29.39 in West 9.1 mph 17.3 mph 72 % 0.00 in
01:16 35.4 °F 27.3 °F 29.39 in WSW 8.6 mph 15.0 mph 72 % 0.00 in
01:21 35.3 °F 27.2 °F 29.40 in NW 8.5 mph 19.6 mph 72 % 0.00 in
01:26 35.3 °F 26.8 °F 29.40 in WNW 7.7 mph 19.6 mph 71 % 0.00 in
01:31 35.2 °F 26.7 °F 29.40 in WNW 4.9 mph 16.1 mph 71 % 0.00 in
01:36 35.2 °F 26.7 °F 29.40 in SSW 6.3 mph 8.1 mph 71 % 0.00 in
01:41 35.0 °F 26.2 °F 29.40 in NW 7.6 mph 12.7 mph 70 % 0.00 in
01:46 35.0 °F 26.2 °F 29.40 in WNW 5.9 mph 15.0 mph 70 % 0.00 in
01:51 34.9 °F 25.8 °F 29.39 in SW 9.1 mph 16.1 mph 69 % 0.00 in
01:56 34.8 °F 25.7 °F 29.40 in NW 7.5 mph 10.4 mph 69 % 0.00 in
02:02 34.8 °F 25.7 °F 29.40 in WSW 7.7 mph 15.0 mph 69 % 0.00 in
02:07 34.7 °F 25.6 °F 29.39 in NW 10.2 mph 16.1 mph 69 % 0.00 in
02:12 34.6 °F 25.1 °F 29.40 in West 10.0 mph 17.0 mph 68 % 0.00 in
02:17 34.6 °F 25.1 °F 29.40 in WSW 6.2 mph 11.5 mph 68 % 0.00 in
02:22 34.5 °F 25.0 °F 29.40 in West 9.1 mph 16.0 mph 68 % 0.00 in
02:27 34.4 °F 24.6 °F 29.41 in WSW 10.7 mph 16.0 mph 67 % 0.00 in
02:32 34.3 °F 24.8 °F 29.40 in NW 5.7 mph 9.2 mph 68 % 0.00 in
02:37 34.2 °F 24.4 °F 29.40 in NW 8.8 mph 11.5 mph 67 % 0.00 in
02:42 34.2 °F 24.4 °F 29.41 in West 7.7 mph 11.5 mph 67 % 0.00 in
02:47 34.1 °F 24.3 °F 29.40 in West 11.0 mph 19.6 mph 67 % 0.00 in
02:52 34.0 °F 24.2 °F 29.40 in WSW 9.2 mph 15.0 mph 67 % 0.00 in
02:57 33.9 °F 24.1 °F 29.40 in West 10.9 mph 17.3 mph 67 % 0.00 in
03:02 33.8 °F 24.0 °F 29.40 in West 6.1 mph 12.7 mph 67 % 0.00 in
03:07 33.6 °F 24.2 °F 29.41 in West 8.4 mph 15.0 mph 68 % 0.00 in
03:12 33.5 °F 24.1 °F 29.41 in NW 5.9 mph 17.3 mph 68 % 0.00 in
03:17 33.4 °F 24.3 °F 29.42 in NW 6.5 mph 11.5 mph 69 % 0.00 in
03:22 33.3 °F 24.6 °F 29.41 in NW 11.5 mph 18.4 mph 70 % 0.00 in
03:27 33.3 °F 24.2 °F 29.42 in North 8.8 mph 11.5 mph 69 % 0.00 in
03:33 33.2 °F 24.5 °F 29.42 in WNW 4.5 mph 11.0 mph 70 % 0.00 in
03:38 33.2 °F 24.1 °F 29.42 in West 6.0 mph 11.5 mph 69 % 0.00 in
03:43 33.2 °F 24.5 °F 29.42 in NW 7.0 mph 15.0 mph 70 % 0.00 in
03:48 33.1 °F 24.4 °F 29.42 in WNW 8.8 mph 17.3 mph 70 % 0.00 in
03:53 33.1 °F 24.4 °F 29.42 in NW 4.8 mph 11.0 mph 70 % 0.00 in
03:58 33.0 °F 24.3 °F 29.42 in NW 8.6 mph 12.7 mph 70 % 0.00 in
04:03 33.0 °F 24.3 °F 29.42 in WNW 9.6 mph 16.1 mph 70 % 0.00 in
04:08 33.0 °F 23.9 °F 29.42 in West 9.1 mph 18.4 mph 69 % 0.00 in
04:13 33.0 °F 23.9 °F 29.43 in NW 6.6 mph 12.7 mph 69 % 0.00 in
04:18 33.0 °F 23.9 °F 29.43 in West 7.1 mph 16.1 mph 69 % 0.00 in
04:23 32.9 °F 23.8 °F 29.43 in West 9.4 mph 13.8 mph 69 % 0.00 in
04:28 32.9 °F 23.5 °F 29.43 in WNW 7.6 mph 11.5 mph 68 % 0.00 in
04:33 32.8 °F 23.7 °F 29.43 in NW 4.9 mph 9.2 mph 69 % 0.00 in
04:38 32.7 °F 23.3 °F 29.43 in North 8.9 mph 16.1 mph 68 % 0.00 in
04:44 32.7 °F 22.9 °F 29.43 in West 7.3 mph 11.5 mph 67 % 0.00 in
04:49 32.6 °F 22.8 °F 29.44 in WNW 11.6 mph 19.6 mph 67 % 0.00 in
04:54 32.5 °F 22.4 °F 29.43 in WNW 8.7 mph 16.1 mph 66 % 0.00 in
04:59 32.6 °F 22.8 °F 29.44 in West 8.3 mph 12.7 mph 67 % 0.00 in
05:04 32.5 °F 22.8 °F 29.44 in WNW 7.3 mph 11.5 mph 67 % 0.00 in
05:09 32.4 °F 22.7 °F 29.44 in NW 7.6 mph 15.0 mph 67 % 0.00 in
05:14 32.4 °F 22.7 °F 29.43 in NW 6.7 mph 19.6 mph 67 % 0.00 in
05:19 32.3 °F 22.6 °F 29.44 in West 7.7 mph 16.0 mph 67 % 0.00 in
05:24 32.3 °F 22.6 °F 29.44 in WNW 7.5 mph 11.5 mph 67 % 0.00 in
05:29 32.2 °F 22.1 °F 29.44 in NW 9.9 mph 12.0 mph 66 % 0.00 in
05:34 32.2 °F 22.1 °F 29.45 in West 8.1 mph 16.0 mph 66 % 0.00 in
05:39 32.1 °F 22.0 °F 29.44 in NW 9.5 mph 12.7 mph 66 % 0.00 in
05:44 32.1 °F 21.7 °F 29.44 in West 9.1 mph 18.4 mph 65 % 0.00 in
05:49 32.0 °F 21.9 °F 29.44 in WNW 7.5 mph 15.0 mph 66 % 0.00 in
05:54 31.9 °F 21.8 °F 29.45 in WSW 10.1 mph 18.4 mph 66 % 0.00 in
05:59 31.9 °F 21.1 °F 29.45 in WNW 10.1 mph 19.0 mph 64 % 0.00 in
06:04 31.8 °F 21.0 °F 29.46 in WNW 5.8 mph 19.6 mph 64 % 0.00 in
06:09 31.7 °F 20.9 °F 29.46 in SW 8.5 mph 13.8 mph 64 % 0.00 in
06:14 31.7 °F 21.3 °F 29.46 in WNW 10.9 mph 21.9 mph 65 % 0.00 in
06:19 31.6 °F 20.4 °F 29.46 in West 10.9 mph 21.9 mph 63 % 0.00 in
06:24 31.6 °F 20.8 °F 29.46 in NW 9.2 mph 21.9 mph 64 % 0.00 in
06:30 31.5 °F 20.7 °F 29.46 in NW 8.7 mph 18.0 mph 64 % 0.00 in
06:35 31.4 °F 20.6 °F 29.46 in West 5.5 mph 11.5 mph 64 % 0.00 in
06:40 31.4 °F 21.0 °F 29.47 in WNW 9.4 mph 17.3 mph 65 % 0.00 in
06:45 31.4 °F 21.0 °F 29.47 in NW 8.0 mph 13.0 mph 65 % 0.00 in
06:50 31.3 °F 20.9 °F 29.47 in West 6.1 mph 16.1 mph 65 % 0.00 in
06:55 31.2 °F 20.8 °F 29.48 in WNW 10.9 mph 17.0 mph 65 % 0.00 in
07:00 31.2 °F 20.8 °F 29.48 in West 8.1 mph 13.0 mph 65 % 0.00 in
07:05 31.2 °F 20.4 °F 29.48 in NNW 8.9 mph 13.8 mph 64 % 0.00 in
07:10 31.3 °F 20.5 °F 29.48 in West 9.3 mph 11.5 mph 64 % 0.00 in
07:15 31.3 °F 20.5 °F 29.48 in West 8.8 mph 18.0 mph 64 % 0.00 in
07:20 31.2 °F 20.1 °F 29.48 in SW 6.6 mph 19.6 mph 63 % 0.00 in
07:21 31.3 °F 20.2 °F 29.48 in WNW 3.6 mph 17.3 mph 63 % 0.00 in
07:26 31.2 °F 20.1 °F 29.49 in WNW 9.4 mph 16.0 mph 63 % 0.00 in
07:31 31.2 °F 20.4 °F 29.49 in West 7.0 mph 16.1 mph 64 % 0.00 in
07:36 31.2 °F 20.8 °F 29.49 in WSW 7.9 mph 12.7 mph 65 % 0.00 in
07:41 31.3 °F 20.2 °F 29.48 in NW 8.9 mph 19.6 mph 63 % 0.00 in
07:46 31.2 °F 20.1 °F 29.49 in WNW 10.2 mph 23.0 mph 63 % 0.00 in
07:51 31.2 °F 20.1 °F 29.49 in WNW 12.4 mph 19.6 mph 63 % 0.00 in
07:56 31.2 °F 20.1 °F 29.49 in WNW 7.3 mph 18.0 mph 63 % 0.00 in
08:01 31.2 °F 20.1 °F 29.49 in WSW 7.6 mph 12.7 mph 63 % 0.00 in
08:06 31.2 °F 19.7 °F 29.50 in SW 7.3 mph 18.4 mph 62 % 0.00 in
08:11 31.3 °F 19.8 °F 29.50 in West 7.2 mph 17.0 mph 62 % 0.00 in
08:16 31.4 °F 19.9 °F 29.50 in WNW 8.9 mph 17.3 mph 62 % 0.00 in
08:21 31.6 °F 20.1 °F 29.50 in West 9.4 mph 15.0 mph 62 % 0.00 in
08:26 31.8 °F 20.3 °F 29.50 in West 6.8 mph 11.5 mph 62 % 0.00 in
08:31 32.0 °F 20.4 °F 29.50 in WNW 11.5 mph 16.1 mph 62 % 0.00 in
08:36 32.1 °F 20.2 °F 29.50 in NW 8.6 mph 15.0 mph 61 % 0.00 in
08:41 32.1 °F 20.2 °F 29.50 in NW 7.5 mph 15.0 mph 61 % 0.00 in
08:46 32.4 °F 20.8 °F 29.51 in NW 11.0 mph 17.3 mph 62 % 0.00 in
08:51 32.6 °F 21.0 °F 29.50 in West 7.3 mph 12.0 mph 62 % 0.00 in
09:02 33.1 °F 20.7 °F 29.51 in WNW 9.2 mph 16.1 mph 60 % 0.00 in
09:07 33.3 °F 20.5 °F 29.51 in WNW 9.9 mph 16.1 mph 59 % 0.00 in
09:12 33.6 °F 21.2 °F 29.51 in West 5.4 mph 18.0 mph 60 % 0.00 in
09:17 33.9 °F 20.7 °F 29.51 in WNW 8.3 mph 18.0 mph 58 % 0.00 in
09:22 34.1 °F 20.9 °F 29.51 in NW 7.9 mph 8.1 mph 58 % 0.00 in
09:27 34.2 °F 20.5 °F 29.51 in NW 7.6 mph 12.7 mph 57 % 0.00 in
09:32 34.1 °F 20.4 °F 29.51 in WNW 9.3 mph 19.6 mph 57 % 0.00 in
09:37 34.1 °F 20.4 °F 29.51 in West 7.9 mph 11.5 mph 57 % 0.00 in
09:42 34.1 °F 20.4 °F 29.51 in West 9.6 mph 17.3 mph 57 % 0.00 in
09:47 34.2 °F 20.5 °F 29.52 in NW 9.1 mph 11.0 mph 57 % 0.00 in
09:52 34.3 °F 20.2 °F 29.52 in West 10.1 mph 17.3 mph 56 % 0.00 in
09:57 34.5 °F 20.4 °F 29.52 in West 8.7 mph 17.3 mph 56 % 0.00 in
10:02 34.7 °F 20.6 °F 29.52 in West 6.7 mph 13.8 mph 56 % 0.00 in
10:07 34.7 °F 20.2 °F 29.52 in WNW 8.5 mph 13.8 mph 55 % 0.00 in
10:12 34.8 °F 20.3 °F 29.52 in WNW 6.8 mph 12.7 mph 55 % 0.00 in
10:17 35.0 °F 20.9 °F 29.52 in WNW 9.9 mph 18.4 mph 56 % 0.00 in
10:23 35.3 °F 20.7 °F 29.52 in WNW 6.4 mph 13.8 mph 55 % 0.00 in
10:28 35.7 °F 20.7 °F 29.52 in WNW 6.2 mph 13.8 mph 54 % 0.00 in
10:29 35.8 °F 20.8 °F 29.52 in WNW 8.0 mph 11.5 mph 54 % 0.00 in
10:34 35.9 °F 20.9 °F 29.52 in West 9.0 mph 15.0 mph 54 % 0.00 in
10:39 36.2 °F 21.1 °F 29.52 in West 5.1 mph 11.0 mph 54 % 0.00 in
10:44 36.4 °F 20.9 °F 29.52 in NW 7.8 mph 16.1 mph 53 % 0.00 in
10:49 36.5 °F 20.5 °F 29.52 in WNW 8.5 mph 19.6 mph 52 % 0.00 in
10:54 36.4 °F 20.4 °F 29.52 in NW 9.7 mph 18.4 mph 52 % 0.00 in
10:59 36.3 °F 20.3 °F 29.53 in WSW 7.2 mph 16.1 mph 52 % 0.00 in
11:05 36.4 °F 20.9 °F 29.53 in West 8.5 mph 12.7 mph 53 % 0.00 in
11:10 36.8 °F 21.7 °F 29.53 in West 4.9 mph 9.2 mph 54 % 0.00 in
11:15 37.2 °F 21.2 °F 29.53 in West 7.3 mph 15.0 mph 52 % 0.00 in
11:20 37.4 °F 21.4 °F 29.53 in WNW 6.9 mph 11.5 mph 52 % 0.00 in
11:25 37.4 °F 20.9 °F 29.53 in WSW 6.0 mph 10.4 mph 51 % 0.00 in
11:30 37.6 °F 21.1 °F 29.53 in West 9.7 mph 18.4 mph 51 % 0.00 in
11:35 37.5 °F 21.9 °F 29.52 in WNW 8.1 mph 16.0 mph 53 % 0.00 in
11:40 37.5 °F 21.5 °F 29.53 in WSW 5.0 mph 15.0 mph 52 % 0.00 in
11:45 37.4 °F 21.4 °F 29.52 in NW 6.8 mph 10.4 mph 52 % 0.00 in
11:50 37.4 °F 21.4 °F 29.52 in West 6.7 mph 12.7 mph 52 % 0.00 in
11:55 37.3 °F 21.7 °F 29.52 in WSW 3.9 mph 8.1 mph 53 % 0.00 in
12:00 37.3 °F 22.2 °F 29.53 in NW 7.9 mph 16.1 mph 54 % 0.00 in
12:05 37.1 °F 21.5 °F 29.52 in West 5.0 mph 6.9 mph 53 % 0.00 in
12:11 37.0 °F 21.0 °F 29.52 in WNW 9.0 mph 15.0 mph 52 % 0.00 in
12:16 36.9 °F 21.8 °F 29.52 in WSW 6.6 mph 12.0 mph 54 % 0.00 in
12:21 37.1 °F 21.5 °F 29.52 in NW 11.0 mph 19.6 mph 53 % 0.00 in
12:26 37.2 °F 21.6 °F 29.52 in WNW 5.9 mph 11.5 mph 53 % 0.00 in
12:31 37.4 °F 22.3 °F 29.52 in WNW 6.4 mph 10.4 mph 54 % 0.00 in
12:36 37.4 °F 22.3 °F 29.53 in West 6.7 mph 17.0 mph 54 % 0.00 in
12:41 37.4 °F 21.4 °F 29.52 in West 7.1 mph 12.7 mph 52 % 0.00 in
12:46 37.3 °F 21.3 °F 29.52 in WSW 6.7 mph 16.1 mph 52 % 0.00 in
12:51 37.3 °F 21.7 °F 29.52 in West 8.1 mph 10.4 mph 53 % 0.00 in
12:56 37.3 °F 21.7 °F 29.52 in WNW 8.3 mph 16.0 mph 53 % 0.00 in
13:01 37.3 °F 21.3 °F 29.52 in West 10.4 mph 13.8 mph 52 % 0.00 in
13:06 37.5 °F 21.5 °F 29.52 in WSW 7.3 mph 13.8 mph 52 % 0.00 in
13:11 37.6 °F 21.5 °F 29.53 in NW 8.0 mph 12.7 mph 52 % 0.00 in
13:16 37.6 °F 21.5 °F 29.52 in West 7.2 mph 15.0 mph 52 % 0.00 in
13:21 37.7 °F 21.6 °F 29.52 in SW 8.0 mph 13.8 mph 52 % 0.00 in
13:26 37.6 °F 21.5 °F 29.53 in WNW 10.8 mph 15.0 mph 52 % 0.00 in
13:31 37.7 °F 21.6 °F 29.52 in West 8.7 mph 17.3 mph 52 % 0.00 in
13:36 37.7 °F 22.1 °F 29.52 in West 8.0 mph 11.5 mph 53 % 0.00 in
13:41 37.9 °F 21.8 °F 29.52 in WSW 5.9 mph 11.5 mph 52 % 0.00 in
13:46 37.9 °F 22.3 °F 29.53 in WNW 6.6 mph 11.5 mph 53 % 0.00 in
13:51 38.0 °F 21.9 °F 29.53 in NW 8.5 mph 12.7 mph 52 % 0.00 in
13:56 38.1 °F 22.0 °F 29.52 in NW 8.5 mph 14.0 mph 52 % 0.00 in
14:01 38.0 °F 21.5 °F 29.52 in West 6.5 mph 15.0 mph 51 % 0.00 in
14:06 38.0 °F 21.9 °F 29.53 in West 9.8 mph 15.0 mph 52 % 0.00 in
14:11 37.8 °F 21.7 °F 29.53 in WNW 7.3 mph 13.8 mph 52 % 0.00 in
14:16 37.9 °F 22.3 °F 29.53 in West 8.4 mph 13.8 mph 53 % 0.00 in
14:21 37.8 °F 21.7 °F 29.53 in NW 8.7 mph 17.3 mph 52 % 0.00 in
14:26 37.6 °F 21.5 °F 29.53 in West 7.4 mph 13.8 mph 52 % 0.00 in
14:31 37.3 °F 21.3 °F 29.53 in West 7.5 mph 11.5 mph 52 % 0.00 in
14:36 37.2 °F 21.6 °F 29.53 in NNW 3.6 mph 8.1 mph 53 % 0.00 in
14:42 37.1 °F 22.0 °F 29.53 in WNW 10.1 mph 15.0 mph 54 % 0.00 in
14:47 36.9 °F 21.8 °F 29.53 in WSW 9.1 mph 19.6 mph 54 % 0.00 in
14:52 36.6 °F 21.5 °F 29.53 in West 6.6 mph 11.5 mph 54 % 0.00 in
14:57 36.5 °F 21.4 °F 29.53 in NW 7.0 mph 19.6 mph 54 % 0.00 in
15:02 36.4 °F 21.8 °F 29.53 in WSW 5.5 mph 19.6 mph 55 % 0.00 in
15:07 36.3 °F 22.1 °F 29.54 in West 5.3 mph 17.3 mph 56 % 0.00 in
15:12 36.3 °F 22.1 °F 29.54 in NW 8.1 mph 21.0 mph 56 % 0.00 in
15:17 36.1 °F 21.5 °F 29.54 in WNW 9.4 mph 17.3 mph 55 % 0.00 in
15:22 36.0 °F 21.4 °F 29.54 in West 7.6 mph 12.7 mph 55 % 0.00 in
15:27 35.8 °F 21.6 °F 29.54 in NW 6.1 mph 13.8 mph 56 % 0.00 in
15:32 35.7 °F 21.9 °F 29.54 in WSW 7.8 mph 15.0 mph 57 % 0.00 in
15:37 35.6 °F 21.4 °F 29.55 in WNW 5.6 mph 12.7 mph 56 % 0.00 in
15:43 35.5 °F 21.3 °F 29.55 in WNW 6.4 mph 11.5 mph 56 % 0.00 in
15:48 35.4 °F 21.2 °F 29.55 in West 9.7 mph 18.4 mph 56 % 0.00 in
15:53 35.3 °F 21.2 °F 29.55 in West 11.1 mph 22.0 mph 56 % 0.00 in
15:58 35.1 °F 21.0 °F 29.55 in WNW 7.3 mph 12.7 mph 56 % 0.00 in
16:03 35.0 °F 21.3 °F 29.56 in West 5.6 mph 11.5 mph 57 % 0.00 in
16:08 34.9 °F 21.2 °F 29.55 in WNW 9.4 mph 15.0 mph 57 % 0.00 in
16:13 34.8 °F 21.5 °F 29.56 in NW 8.5 mph 19.6 mph 58 % 0.00 in
16:18 34.7 °F 21.4 °F 29.56 in NW 7.4 mph 15.0 mph 58 % 0.00 in
16:23 34.6 °F 20.9 °F 29.56 in WNW 7.0 mph 15.0 mph 57 % 0.00 in
16:28 34.4 °F 21.1 °F 29.56 in WNW 8.3 mph 17.3 mph 58 % 0.00 in
16:33 34.2 °F 20.5 °F 29.57 in West 10.7 mph 19.6 mph 57 % 0.00 in
16:38 34.0 °F 20.3 °F 29.57 in NW 7.8 mph 12.7 mph 57 % 0.00 in
16:43 33.9 °F 20.7 °F 29.57 in West 8.1 mph 17.3 mph 58 % 0.00 in
16:48 33.8 °F 21.0 °F 29.58 in WSW 5.6 mph 11.0 mph 59 % 0.00 in
16:53 33.7 °F 20.5 °F 29.58 in WNW 7.9 mph 16.1 mph 58 % 0.00 in
16:59 33.6 °F 20.8 °F 29.58 in WNW 7.8 mph 17.0 mph 59 % 0.00 in
17:04 33.6 °F 20.8 °F 29.59 in WNW 10.3 mph 17.3 mph 59 % 0.00 in
17:09 33.5 °F 21.1 °F 29.59 in WNW 10.9 mph 18.4 mph 60 % 0.00 in
17:14 33.4 °F 21.0 °F 29.59 in WNW 9.9 mph 12.7 mph 60 % 0.00 in
17:19 33.3 °F 21.3 °F 29.60 in WNW 7.8 mph 8.1 mph 61 % 0.00 in
17:24 33.2 °F 21.2 °F 29.60 in NW 7.2 mph 20.7 mph 61 % 0.00 in
17:29 33.0 °F 21.0 °F 29.60 in NW 9.7 mph 19.6 mph 61 % 0.00 in
17:34 32.8 °F 20.8 °F 29.60 in WNW 10.6 mph 17.3 mph 61 % 0.00 in
17:39 32.6 °F 21.0 °F 29.60 in North 7.4 mph 16.1 mph 62 % 0.00 in
17:44 32.4 °F 21.2 °F 29.61 in WNW 7.6 mph 13.8 mph 63 % 0.00 in
17:49 32.3 °F 21.1 °F 29.61 in WNW 12.4 mph 21.9 mph 63 % 0.00 in
17:54 32.3 °F 20.7 °F 29.62 in SW 11.0 mph 18.4 mph 62 % 0.00 in
17:59 32.2 °F 20.6 °F 29.62 in West 6.2 mph 15.0 mph 62 % 0.00 in
18:04 32.1 °F 20.9 °F 29.62 in NW 9.1 mph 15.0 mph 63 % 0.00 in
18:09 32.1 °F 20.9 °F 29.62 in West 8.7 mph 15.0 mph 63 % 0.00 in
18:14 32.1 °F 20.9 °F 29.63 in NW 10.7 mph 16.1 mph 63 % 0.00 in
18:19 32.0 °F 20.4 °F 29.63 in NW 7.5 mph 20.7 mph 62 % 0.00 in
18:24 32.0 °F 20.4 °F 29.63 in WNW 7.5 mph 16.0 mph 62 % 0.00 in
18:29 31.9 °F 20.7 °F 29.64 in NW 6.4 mph 17.3 mph 63 % 0.00 in
18:34 31.9 °F 20.7 °F 29.64 in WNW 4.7 mph 10.4 mph 63 % 0.00 in
18:39 31.7 °F 20.2 °F 29.64 in WNW 11.1 mph 16.0 mph 62 % 0.00 in
18:44 31.7 °F 20.2 °F 29.64 in WNW 8.7 mph 16.1 mph 62 % 0.00 in
18:49 31.5 °F 19.6 °F 29.65 in NW 11.5 mph 18.4 mph 61 % 0.00 in
18:55 31.5 °F 20.3 °F 29.65 in WNW 8.5 mph 16.1 mph 63 % 0.00 in
19:00 31.4 °F 19.9 °F 29.65 in NW 8.6 mph 13.8 mph 62 % 0.00 in
19:05 31.3 °F 20.2 °F 29.65 in NNW 6.9 mph 18.4 mph 63 % 0.00 in
19:10 31.2 °F 19.7 °F 29.65 in WNW 8.5 mph 19.6 mph 62 % 0.00 in
19:15 31.1 °F 19.6 °F 29.66 in WNW 9.1 mph 18.4 mph 62 % 0.00 in
19:20 31.0 °F 19.5 °F 29.66 in North 11.5 mph 15.0 mph 62 % 0.00 in
19:25 30.9 °F 19.4 °F 29.66 in WNW 11.2 mph 18.4 mph 62 % 0.00 in
19:30 30.8 °F 19.3 °F 29.66 in WSW 8.7 mph 16.1 mph 62 % 0.00 in
19:35 30.7 °F 19.2 °F 29.66 in NW 9.9 mph 18.4 mph 62 % 0.00 in
19:40 30.7 °F 19.6 °F 29.67 in WNW 8.4 mph 17.3 mph 63 % 0.00 in
19:45 30.6 °F 19.5 °F 29.67 in WSW 7.2 mph 16.1 mph 63 % 0.00 in
19:50 30.5 °F 19.4 °F 29.68 in West 11.9 mph 19.0 mph 63 % 0.00 in
19:55 30.4 °F 19.3 °F 29.68 in West 5.8 mph 18.4 mph 63 % 0.00 in
20:00 30.3 °F 18.8 °F 29.68 in WNW 12.5 mph 19.6 mph 62 % 0.00 in
20:05 30.2 °F 19.1 °F 29.68 in WSW 9.0 mph 18.4 mph 63 % 0.00 in
20:10 30.1 °F 19.4 °F 29.68 in WNW 8.0 mph 11.5 mph 64 % 0.00 in
20:15 29.9 °F 18.5 °F 29.68 in WNW 7.7 mph 16.1 mph 62 % 0.00 in
20:20 29.8 °F 19.5 °F 29.69 in NW 6.1 mph 13.8 mph 65 % 0.00 in
20:25 29.7 °F 18.6 °F 29.69 in WNW 7.7 mph 17.3 mph 63 % 0.00 in
20:31 29.6 °F 18.5 °F 29.69 in WNW 6.4 mph 20.7 mph 63 % 0.00 in
20:36 29.5 °F 18.4 °F 29.69 in NW 6.4 mph 11.5 mph 63 % 0.00 in
20:41 29.5 °F 19.2 °F 29.70 in NW 9.5 mph 13.0 mph 65 % 0.00 in
20:46 29.4 °F 19.4 °F 29.70 in NW 6.7 mph 17.3 mph 66 % 0.00 in
20:51 29.4 °F 19.1 °F 29.70 in WNW 7.7 mph 17.3 mph 65 % 0.00 in
20:56 29.3 °F 19.0 °F 29.70 in WSW 7.5 mph 19.6 mph 65 % 0.00 in
21:01 29.2 °F 18.9 °F 29.71 in NW 4.4 mph 6.9 mph 65 % 0.00 in
21:06 29.2 °F 18.9 °F 29.71 in NW 7.5 mph 13.8 mph 65 % 0.00 in
21:11 29.1 °F 18.8 °F 29.71 in WNW 3.5 mph 15.0 mph 65 % 0.00 in
21:16 29.0 °F 18.7 °F 29.71 in NNW 8.9 mph 14.0 mph 65 % 0.00 in
21:21 29.0 °F 19.1 °F 29.72 in West 6.8 mph 15.0 mph 66 % 0.00 in
21:26 29.0 °F 18.7 °F 29.72 in NW 6.7 mph 18.4 mph 65 % 0.00 in
21:31 28.9 °F 19.0 °F 29.72 in WNW 11.0 mph 16.1 mph 66 % 0.00 in
21:36 28.9 °F 19.0 °F 29.72 in WNW 6.3 mph 15.0 mph 66 % 0.00 in
21:41 28.8 °F 18.9 °F 29.72 in WNW 6.3 mph 11.5 mph 66 % 0.00 in
21:46 28.8 °F 19.2 °F 29.72 in WNW 2.8 mph 6.9 mph 67 % 0.00 in
21:51 28.7 °F 19.1 °F 29.72 in WNW 6.3 mph 12.0 mph 67 % 0.00 in
21:57 28.7 °F 19.5 °F 29.72 in NW 9.1 mph 19.6 mph 68 % 0.00 in
22:02 28.6 °F 19.0 °F 29.72 in NNW 7.9 mph 13.8 mph 67 % 0.00 in
22:07 28.6 °F 18.7 °F 29.73 in NNW 8.0 mph 13.8 mph 66 % 0.00 in
22:12 28.6 °F 18.7 °F 29.73 in West 7.3 mph 13.8 mph 66 % 0.00 in
22:17 28.5 °F 18.9 °F 29.73 in NNW 5.8 mph 17.3 mph 67 % 0.00 in
22:22 28.5 °F 18.9 °F 29.73 in WNW 4.4 mph 11.5 mph 67 % 0.00 in
22:27 28.4 °F 18.5 °F 29.73 in North 4.4 mph 11.5 mph 66 % 0.00 in
22:32 28.4 °F 18.8 °F 29.73 in NW 9.5 mph 9.5 mph 67 % 0.00 in
22:37 28.3 °F 18.4 °F 29.74 in NW 6.6 mph 10.4 mph 66 % 0.00 in
22:42 28.3 °F 18.7 °F 29.73 in NW 6.3 mph 10.0 mph 67 % 0.00 in
22:47 28.3 °F 18.7 °F 29.74 in WNW 4.3 mph 13.8 mph 67 % 0.00 in
22:52 28.3 °F 18.7 °F 29.73 in West 7.5 mph 15.0 mph 67 % 0.00 in
22:57 28.3 °F 19.1 °F 29.73 in NNE 2.1 mph 6.9 mph 68 % 0.00 in
23:02 28.3 °F 19.1 °F 29.74 in NW 7.3 mph 12.7 mph 68 % 0.00 in
23:08 28.3 °F 18.7 °F 29.73 in WNW 5.1 mph 9.2 mph 67 % 0.00 in
23:13 28.3 °F 19.1 °F 29.74 in West 4.4 mph 13.0 mph 68 % 0.00 in
23:18 28.3 °F 19.1 °F 29.74 in NNW 3.6 mph 10.4 mph 68 % 0.00 in
23:23 28.3 °F 18.7 °F 29.74 in NW 5.3 mph 18.0 mph 67 % 0.00 in
23:28 28.3 °F 18.7 °F 29.73 in SW 2.3 mph 6.9 mph 67 % 0.00 in
23:33 28.3 °F 19.1 °F 29.74 in NW 5.3 mph 10.4 mph 68 % 0.00 in
23:38 28.3 °F 19.1 °F 29.74 in WNW 6.0 mph 10.4 mph 68 % 0.00 in
23:43 28.3 °F 18.7 °F 29.74 in WNW 5.7 mph 10.4 mph 67 % 0.00 in
23:48 28.3 °F 18.7 °F 29.74 in North 5.0 mph 13.8 mph 67 % 0.00 in
23:53 28.3 °F 18.7 °F 29.74 in NNW 9.2 mph 10.4 mph 67 % 0.00 in
23:58 28.3 °F 19.1 °F 29.74 in NW 6.4 mph 11.5 mph 68 % 0.00 in
Crab Meadow Weather
Compliments of Weather Underground - 3 mb

Script developed by  Jim McMurry - jmcmurry@mwt.net Adapted for the template by  Wim van der Kuil - Leuven-Template.eu

Weather Terms: Enhanced Fujita Scale or EF-Scale - A scale of wind damage intensity in which wind speeds are inferred from analysis of wind damage. All tornadoes and most other windstorms are assigned a numerical rating from this scale according to the most intense damage caused by the storm. EF0 (weak) 6585 mph, light damage EF1 (weak) 86110 mph, moderate damage EF2 (strong) 111135 mph, considerable damage EF3 (strong) 136165 mph, severe damage EF4 (violent) 166200 mph, devastating damage EF5 (violent) >200 mph, incredible damage.